Flight Track Log - Related Links

Times and Time Zones

All times are in EDT time to prevent confusion due to time zone crossing. See the BJS621 flight status page for this flight to view local times or setup timezone preferences in your user account.

Time Position Orientation Groundspeed Altitude Reporting Facility
EDT Latitude Longitude Course Direction KTS MPH feet Rate Location/Type
Fri 07:51:03 AM 29.6333 -95.6594 North 125 144 1,000  Level Houston Center
Fri 07:52:10 AM 29.6817 -95.6586 North 174 200 4,500 2,824 Climbing Houston Center
Fri 07:52:28 AM 29.6889 -95.6600 351° North 160 184 5,000 2,430 Climbing Houston Center
Fri 07:53:29 AM 29.7508 -95.6531 North 218 251 7,700 2,852 Climbing Houston Center
Fri 07:54:30 AM 29.8275 -95.6228 19° North 287 330 10,800 3,317 Climbing Houston Center
Fri 07:55:32 AM 29.9175 -95.5889 18° North 336 387 14,500 2,780 Climbing Houston Center
Fri 07:56:33 AM 30.0189 -95.5342 25° Northeast 403 464 16,500 2,410 Climbing Houston Center
Fri 07:57:34 AM 30.1331 -95.4314 38° Northeast 429 494 19,400 3,393 Climbing Houston Center
Fri 07:58:35 AM 30.2386 -95.3611 30° Northeast 439 505 23,400 3,659 Climbing Houston Center
Fri 07:59:37 AM 30.3467 -95.3508 North 392 451 26,900 2,878 Climbing Houston Center
Fri 08:00:38 AM 30.4483 -95.3428 North 389 448 29,300 1,525 Climbing Houston Center
Fri 08:01:39 AM 30.5656 -95.3306 North 411 473 30,000 341 Climbing Houston Center
Fri 08:02:41 AM 30.6967 -95.3186 North 461 531 30,000  Level Houston Center
Fri 08:03:42 AM 30.8556 -95.3031 North 472 543 30,000  Level Houston Center
Fri 08:04:43 AM 30.9886 -95.2911 North 473 544 30,000  Level Houston Center
Fri 08:05:45 AM 31.1203 -95.2781 North 470 541 30,000  Level Houston Center
Fri 08:06:15 AM 31.1722 -95.2769 North 474 545 30,000 -333 Level Fort Worth Center
Fri 08:07:15 AM 31.3036 -95.2617 North 474 545 29,500 -750 Descending Fort Worth Center
Fri 08:08:15 AM 31.4225 -95.2564 North 453 521 28,500 -950 Descending Fort Worth Center
Fri 08:09:15 AM 31.5436 -95.2511 North 432 497 27,600 -950 Descending Fort Worth Center
Fri 08:10:15 AM 31.6506 -95.2853 345° North 420 483 26,600 -1,000 Descending Fort Worth Center
Fri 08:11:15 AM 31.7189 -95.3717 313° West 360 414 25,600 -950 Descending Fort Worth Center
Fri 08:12:15 AM 31.7789 -95.4753 304° West 366 421 24,700 -800 Descending Fort Worth Center
Fri 08:13:15 AM 31.8389 -95.5817 304° West 377 434 24,000 -350 Descending Fort Worth Center
Fri 08:14:15 AM 31.8925 -95.6833 302° West 377 434 24,000  Level Fort Worth Center
Fri 08:15:15 AM 31.9481 -95.7853 303° West 372 428 24,000  Level Fort Worth Center
Fri 08:16:15 AM 32.0036 -95.8872 303° West 372 428 24,000  Level Fort Worth Center
Fri 08:17:15 AM 32.0569 -95.9794 304° West 360 414 24,000  Level Fort Worth Center
Fri 08:18:15 AM 32.1125 -96.0817 303° West 360 414 24,000 -1,550 Level Fort Worth Center
Fri 08:19:15 AM 32.1633 -96.1789 302° West 360 414 20,900 -3,200 Descending Fort Worth Center
Fri 08:20:15 AM 32.2292 -96.2689 311° West 345 397 17,600 -3,000 Descending Fort Worth Center
Fri 08:21:15 AM 32.2922 -96.3442 315° West 331 381 14,900 -2,850 Descending Fort Worth Center
Fri 08:22:15 AM 32.3472 -96.4075 316° Northwest 294 338 11,900 -2,000 Descending Fort Worth Center
Fri 08:23:15 AM 32.4019 -96.4661 318° Northwest 275 316 10,900 -1,050 Descending Fort Worth Center
Fri 08:24:15 AM 32.4567 -96.5222 319° Northwest 264 304 9,800 -1,050 Descending Fort Worth Center
Fri 08:25:15 AM 32.5069 -96.5758 318° Northwest 258 297 8,800 -950 Descending Fort Worth Center
Fri 08:26:15 AM 32.5511 -96.6222 318° Northwest 252 290 7,900 -1,150 Descending Fort Worth Center
Fri 08:27:15 AM 32.6058 -96.6786 319° Northwest 236 272 6,500 -1,450 Descending Fort Worth Center
Fri 08:28:15 AM 32.6500 -96.7225 320° Northwest 236 272 5,000 -1,515 Descending Fort Worth Center
Fri 08:28:58 AM 32.6833 -96.7667 312° West 226 260 3,900 -990 Descending Dallas / Fort Worth TRACON
Fri 08:29:58 AM 32.7333 -96.8000 331° Northwest 168 193 3,300 -474 Descending Dallas / Fort Worth TRACON
Fri 08:30:52 AM 32.7500 -96.8333 301° West 150 173 3,000 -158 Descending Dallas / Fort Worth TRACON
Fri 08:31:52 AM 32.7833 -96.8667 320° Northwest 155 178 3,000 -100 Level Dallas / Fort Worth TRACON
Fri 08:32:52 AM 32.8167 -96.9000 320° Northwest 162 186 2,800 -571 Descending Dallas / Fort Worth TRACON
Fri 08:33:58 AM 32.8500 -96.9500 308° West 154 177 1,800 -800 Descending Dallas / Fort Worth TRACON
Fri 08:34:52 AM 32.8667 -96.9667 320° Northwest 113 130 1,200 -667 Descending Dallas / Fort Worth TRACON
Fri 08:36:00 AM 32.8833 -97.0333 308° West  Level FlightAware Approximate
Fri 08:43:00 AM 32.8968 -97.0380 308° West  Level Estimated

Login

Don't have an account? Register now (free) for customized features, flight alerts, and more!